Time;durP1;ratioP1;P1;durP2;ratioP2;P2;SDS_P1;SDS_P2;PMS_P1;PMS_P2;Temp;Humidity;BMP_temperature;BMP_pressure;BME280_temperature;BME280_humidity;BME280_pressure;Samples;Min_cycle;Max_cycle;Signal;HPM_P1;HPM_P2
2022/08/07 00:01:17;;;;;;;0.40;0.30;;;;;;;24.47;96.15;94992.66;5072129;28;20475;-70
2022/08/07 00:04:06;;;;;;;1.17;0.50;;;;;;;23.56;100.00;94986.50;5071951;28;20449;-71
2022/08/07 00:06:38;;;;;;;0.50;0.40;;;;;;;23.66;100.00;94989.41;5071833;28;20440;-71
2022/08/07 00:09:19;;;;;;;0.40;0.20;;;;;;;24.01;100.00;94989.22;5072013;28;20476;-71
2022/08/07 00:11:50;;;;;;;1.00;0.67;;;;;;;24.21;97.75;94993.44;5071892;28;20440;-71
2022/08/07 00:14:29;;;;;;;0.50;0.30;;;;;;;23.69;96.17;94907.50;5072155;28;20447;-71
2022/08/07 00:17:00;;;;;;;1.27;0.47;;;;;;;24.27;97.13;94999.31;5071510;28;20437;-70
2022/08/07 00:19:30;;;;;;;0.50;0.40;;;;;;;24.25;96.42;95002.41;5071832;28;20439;-70
2022/08/07 00:22:19;;;;;;;0.87;0.87;;;;;;;24.21;96.64;95011.63;5071577;28;20450;-70
2022/08/07 00:25:03;;;;;;;0.43;0.27;;;;;;;24.29;95.14;95002.44;5074441;28;20440;-70
2022/08/07 00:27:34;;;;;;;0.53;0.40;;;;;;;24.36;92.86;95003.34;5075095;28;20429;-70
2022/08/07 00:30:22;;;;;;;0.70;0.70;;;;;;;24.33;92.97;94989.75;5074371;28;20477;-70
2022/08/07 00:32:55;;;;;;;0.57;0.40;;;;;;;23.57;100.00;94994.25;5075709;28;20421;-70
2022/08/07 00:35:23;;;;;;;0.50;0.40;;;;;;;23.24;100.00;94996.69;5075392;28;20451;-71
2022/08/07 00:37:53;;;;;;;0.70;0.70;;;;;;;23.58;100.00;94985.00;5075849;28;20425;-70
2022/08/07 00:40:22;;;;;;;0.57;0.43;;;;;;;23.36;100.00;94988.44;5075435;28;20978;-70
2022/08/07 00:43:08;;;;;;;0.50;0.30;;;;;;;23.54;100.00;94986.88;5075326;28;20447;-70
2022/08/07 00:45:39;;;;;;;0.50;0.40;;;;;;;23.72;100.00;94989.88;5075415;28;20444;-70
2022/08/07 00:48:08;;;;;;;0.50;0.30;;;;;;;23.83;100.00;94988.91;5074451;28;20459;-70
2022/08/07 00:50:39;;;;;;;0.50;0.30;;;;;;;23.90;100.00;94980.94;5075206;28;20510;-70
2022/08/07 00:53:18;;;;;;;0.50;0.47;;;;;;;23.92;98.50;94984.06;5075190;28;20500;-70
2022/08/07 00:55:48;;;;;;;0.40;0.30;;;;;;;23.92;97.34;94967.03;5075327;28;20816;-70
2022/08/07 00:58:31;;;;;;;0.73;0.40;;;;;;;24.02;97.20;94972.63;5081762;28;20421;-69
2022/08/07 01:01:01;;;;;;;0.40;0.20;;;;;;;23.79;98.37;94955.59;5080175;28;20506;-70
2022/08/07 01:03:30;;;;;;;0.40;0.30;;;;;;;23.84;99.94;94966.13;5075538;28;20515;-70
2022/08/07 01:06:19;;;;;;;0.70;0.60;;;;;;;23.93;99.54;94971.31;5074291;28;20437;-70
2022/08/07 01:08:49;;;;;;;0.40;0.30;;;;;;;23.88;98.69;94956.13;5073811;28;20883;-70
2022/08/07 01:11:21;;;;;;;0.50;0.30;;;;;;;23.70;100.00;94970.53;5075274;28;20443;-69
2022/08/07 01:14:09;;;;;;;0.40;0.20;;;;;;;23.66;100.00;94965.03;5074639;28;20436;-69
2022/08/07 01:16:39;;;;;;;0.50;0.40;;;;;;;23.60;100.00;94974.63;5075293;28;20508;-69
2022/08/07 01:19:14;;;;;;;0.40;0.30;;;;;;;23.70;100.00;94979.44;5073239;28;20468;-69
2022/08/07 01:21:48;;;;;;;0.40;0.30;;;;;;;;;;5073672;28;20429;-69
2022/08/07 01:24:21;;;;;;;0.80;0.43;;;;;;;23.13;100.00;94969.44;5073566;28;21009;-69
2022/08/07 01:26:50;;;;;;;0.40;0.30;;;;;;;23.26;100.00;94978.19;5073833;28;20761;-69
2022/08/07 01:29:22;;;;;;;0.47;0.30;;;;;;;23.33;100.00;94979.09;5072651;28;20503;-69
2022/08/07 01:31:55;;;;;;;0.83;0.83;;;;;;;23.51;100.00;94984.88;5073302;28;20452;-69
2022/08/07 01:34:30;;;;;;;0.40;0.30;;;;;;;23.38;100.00;94971.88;5072751;28;20461;-69
2022/08/07 01:37:01;;;;;;;1.00;0.43;;;;;;;23.34;100.00;94971.78;5073574;28;20453;-69
2022/08/07 01:39:30;;;;;;;0.40;0.20;;;;;;;23.48;100.00;94974.75;5073646;28;20437;-69
2022/08/07 01:42:14;;;;;;;0.40;0.33;;;;;;;23.70;100.00;94971.31;5073280;28;20413;-70
2022/08/07 01:45:02;;;;;;;0.40;0.30;;;;;;;23.45;99.25;94918.69;5073098;28;20441;-69
2022/08/07 01:47:31;;;;;;;0.40;0.30;;;;;;;23.75;99.51;94972.94;5073100;28;20422;-68
2022/08/07 01:50:19;;;;;;;0.50;0.30;;;;;;;23.89;96.55;94967.75;5072969;28;21038;-70
2022/08/07 01:53:00;;;;;;;0.60;0.40;;;;;;;23.91;98.36;94968.94;5073065;28;20475;-70
2022/08/07 01:55:42;;;;;;;0.70;0.70;;;;;;;23.59;100.00;94980.38;5072929;28;20474;-70
2022/08/07 01:58:15;;;;;;;1.50;0.87;;;;;;;23.32;100.00;94974.84;5072959;28;20432;-70
2022/08/07 02:00:59;;;;;;;1.13;1.13;;;;;;;22.92;100.00;94979.81;5078152;28;20439;-70
2022/08/07 02:03:52;;;;;;;0.80;0.80;;;;;;;22.57;100.00;94985.22;5072635;28;20960;-69
2022/08/07 02:06:22;;;;;;;0.50;0.40;;;;;;;22.24;100.00;94981.41;5073267;28;20425;-69
2022/08/07 02:09:06;;;;;;;0.87;0.87;;;;;;;22.36;100.00;94978.59;5073161;28;20460;-68
2022/08/07 02:11:38;;;;;;;0.50;0.30;;;;;;;22.67;100.00;94983.91;5072297;28;20964;-69
2022/08/07 02:14:28;;;;;;;0.43;0.30;;;;;;;22.54;100.00;94937.31;5071592;28;20433;-68
2022/08/07 02:17:09;;;;;;;0.93;0.40;;;;;;;22.36;100.00;94984.78;5028840;28;1254135;-69
2022/08/07 02:19:41;;;;;;;0.40;0.30;;;;;;;22.19;100.00;94965.47;5073720;28;20436;-68
2022/08/07 02:22:32;;;;;;;0.47;0.40;;;;;;;22.65;100.00;94978.09;5073149;28;20425;-69
2022/08/07 02:25:06;;;;;;;1.80;0.63;;;;;;;22.77;100.00;94971.78;5072328;28;20434;-69
2022/08/07 02:27:45;;;;;;;0.40;0.30;;;;;;;22.87;100.00;94972.00;5073847;28;20444;-68
2022/08/07 02:30:20;;;;;;;0.60;0.30;;;;;;;22.97;100.00;94986.88;5073864;28;20476;-69
2022/08/07 02:32:50;;;;;;;0.60;0.60;;;;;;;22.79;100.00;94980.31;5073295;28;20429;-69
2022/08/07 02:35:38;;;;;;;0.40;0.27;;;;;;;22.65;100.00;94970.78;5072207;28;20422;-69
2022/08/07 02:38:29;;;;;;;0.40;0.30;;;;;;;22.14;100.00;94977.28;5072863;28;20441;-68
2022/08/07 02:41:01;;;;;;;0.50;0.30;;;;;;;22.57;100.00;94984.44;5073105;28;20414;-69
2022/08/07 02:43:33;;;;;;;0.50;0.30;;;;;;;22.80;100.00;94977.25;5073008;28;20429;-69
2022/08/07 02:46:04;;;;;;;0.47;0.30;;;;;;;22.54;100.00;94969.72;5072518;28;20467;-69
2022/08/07 02:48:33;;;;;;;0.40;0.30;;;;;;;22.68;100.00;94972.78;5072881;28;20432;-69
2022/08/07 02:51:07;;;;;;;0.50;0.50;;;;;;;22.83;100.00;94975.75;5072673;28;20961;-68
2022/08/07 02:53:57;;;;;;;0.40;0.30;;;;;;;22.85;100.00;94973.47;5072521;28;20426;-68
2022/08/07 02:56:31;;;;;;;0.50;0.50;;;;;;;22.94;100.00;94977.56;5072606;28;20432;-68
2022/08/07 02:59:03;;;;;;;0.40;0.20;;;;;;;23.05;100.00;94983.16;5072620;28;20949;-68
2022/08/07 03:01:33;;;;;;;0.97;0.93;;;;;;;22.33;100.00;94926.06;5072609;28;20425;-68
2022/08/07 03:04:05;;;;;;;0.50;0.30;;;;;;;22.88;100.00;94972.78;5072503;28;20471;-68
2022/08/07 03:06:41;;;;;;;0.70;0.50;;;;;;;23.01;100.00;94982.31;5072445;28;20497;-69
2022/08/07 03:09:13;;;;;;;0.60;0.30;;;;;;;23.05;100.00;94988.56;5072682;28;20448;-68
2022/08/07 03:12:05;;;;;;;0.60;0.40;;;;;;;22.84;100.00;94982.75;5072551;28;20451;-68
2022/08/07 03:14:36;;;;;;;0.50;0.30;;;;;;;22.73;100.00;94979.81;5072542;28;20435;-68
2022/08/07 03:17:07;;;;;;;0.50;0.43;;;;;;;22.04;100.00;94985.94;5072675;28;20508;-68
2022/08/07 03:19:36;;;;;;;3.23;1.17;;;;;;;21.20;100.00;94831.66;5072247;28;20465;-68
2022/08/07 03:22:06;;;;;;;0.50;0.40;;;;;;;21.95;100.00;94988.03;5072106;28;20487;-68
2022/08/07 03:24:46;;;;;;;0.47;0.30;;;;;;;22.42;100.00;94977.16;5072072;28;20519;-68
2022/08/07 03:27:16;;;;;;;0.50;0.47;;;;;;;22.19;100.00;94979.72;5072320;28;20459;-68
2022/08/07 03:30:07;;;;;;;1.43;0.53;;;;;;;22.09;100.00;94980.25;5071855;28;21030;-68
2022/08/07 03:32:41;;;;;;;0.40;0.33;;;;;;;22.29;100.00;94984.59;5072031;28;20524;-68
2022/08/07 03:35:26;;;;;;;0.50;0.30;;;;;;;22.44;100.00;94974.91;5072286;28;20437;-69
2022/08/07 03:38:13;;;;;;;0.60;0.40;;;;;;;22.60;100.00;94978.34;5072311;28;20435;-68
2022/08/07 03:40:43;;;;;;;0.97;0.87;;;;;;;22.21;100.00;94930.81;5071043;28;20440;-68
2022/08/07 03:43:22;;;;;;;0.50;0.30;;;;;;;21.89;100.00;94992.09;5071121;28;20424;-69
2022/08/07 03:45:59;;;;;;;0.50;0.43;;;;;;;21.91;100.00;94995.25;5070356;28;20864;-69
2022/08/07 03:48:32;;;;;;;0.50;0.30;;;;;;;22.20;100.00;94992.09;5072135;28;20434;-69
2022/08/07 03:51:13;;;;;;;0.50;0.40;;;;;;;21.95;100.00;95004.22;5071930;28;20476;-70
2022/08/07 03:53:42;;;;;;;0.50;0.50;;;;;;;21.90;100.00;94993.69;5071795;28;20905;-70
2022/08/07 03:56:33;;;;;;;3.53;0.60;;;;;;;21.68;100.00;95013.91;5071633;28;20433;-70
2022/08/07 03:59:05;;;;;;;0.50;0.50;;;;;;;21.45;100.00;95021.78;5071214;28;20465;-70
2022/08/07 04:01:41;;;;;;;0.50;0.40;;;;;;;21.52;100.00;95021.19;5071231;28;20421;-71
2022/08/07 04:04:15;;;;;;;0.67;0.50;;;;;;;21.57;100.00;95029.03;5070646;28;20511;-70
2022/08/07 04:06:45;;;;;;;0.70;0.70;;;;;;;22.06;100.00;95030.31;5071874;28;20436;-70
2022/08/07 04:09:20;;;;;;;0.40;0.30;;;;;;;22.48;100.00;95030.56;5070849;28;20492;-69
2022/08/07 04:11:51;;;;;;;0.50;0.40;;;;;;;22.08;100.00;95032.69;5071341;28;20496;-70
2022/08/07 04:14:42;;;;;;;0.50;0.30;;;;;;;21.90;100.00;95032.25;5070653;28;20445;-70
2022/08/07 04:17:16;;;;;;;0.40;0.30;;;;;;;21.92;100.00;95029.97;5071050;28;20517;-70
2022/08/07 04:19:49;;;;;;;0.40;0.30;;;;;;;22.00;100.00;95030.94;5071440;28;21023;-69
2022/08/07 04:22:23;;;;;;;0.40;0.37;;;;;;;22.27;100.00;95034.66;5071456;28;20413;-69
2022/08/07 04:24:57;;;;;;;0.40;0.30;;;;;;;22.21;100.00;95050.38;5071618;28;20512;-69
2022/08/07 04:27:29;;;;;;;0.40;0.40;;;;;;;22.26;100.00;95033.13;5071448;28;20432;-68
2022/08/07 04:30:13;;;;;;;0.60;0.33;;;;;;;22.48;100.00;95018.97;5070477;28;20432;-68
2022/08/07 04:33:05;;;;;;;0.60;0.50;;;;;;;22.34;100.00;95032.91;5071229;28;20437;-68
2022/08/07 04:35:35;;;;;;;0.40;0.30;;;;;;;22.68;100.00;95026.81;5071095;28;20464;-69
2022/08/07 04:38:06;;;;;;;0.50;0.50;;;;;;;22.94;100.00;95028.13;5070708;28;20443;-61
2022/08/07 04:40:35;;;;;;;0.63;0.63;;;;;;;23.24;100.00;95018.31;5071013;28;21065;-61
2022/08/07 04:43:23;;;;;;;1.43;1.23;;;;;;;22.80;100.00;95019.69;5071153;28;20479;-58
2022/08/07 04:46:22;;;;;;;0.50;0.50;;;;;;;22.54;100.00;95020.28;5070825;28;20952;-58
2022/08/07 04:49:10;;;;;;;0.60;0.40;;;;;;;23.18;100.00;95027.84;5071315;28;20536;-57
2022/08/07 04:51:53;;;;;;;0.53;0.53;;;;;;;23.45;100.00;95018.00;5071042;28;21069;-57
2022/08/07 04:54:31;;;;;;;0.60;0.60;;;;;;;23.78;100.00;95024.41;5071041;28;20944;-57
2022/08/07 04:57:07;;;;;;;0.50;0.40;;;;;;;23.89;100.00;95022.66;5070145;28;20432;-57
2022/08/07 05:00:02;;;;;;;0.70;0.70;;;;;;;23.77;100.00;95028.25;5071201;28;20835;-56
2022/08/07 05:03:03;;;;;;;0.60;0.57;;;;;;;22.90;100.00;94935.38;5071317;28;20440;-56
2022/08/07 05:05:59;;;;;;;0.83;0.60;;;;;;;23.49;100.00;95041.25;5069625;28;20444;-56
2022/08/07 05:08:49;;;;;;;0.60;0.50;;;;;;;23.26;100.00;95040.38;5069064;28;20425;-56
2022/08/07 05:11:34;;;;;;;1.00;0.93;;;;;;;22.90;100.00;95049.66;5074075;28;20552;-56
2022/08/07 05:14:27;;;;;;;1.17;1.10;;;;;;;22.77;100.00;95045.50;5074352;28;20429;-56
2022/08/07 05:17:20;;;;;;;0.73;0.73;;;;;;;22.79;100.00;95056.78;5074095;28;20491;-60
2022/08/07 05:20:13;;;;;;;0.73;0.50;;;;;;;23.27;100.00;95050.06;5074317;28;20449;-60
2022/08/07 05:22:44;;;;;;;1.20;0.90;;;;;;;;;;5073700;28;20453;-60
2022/08/07 05:25:17;;;;;;;0.53;0.40;;;;;;;23.76;100.00;95063.78;5073365;28;20440;-61
2022/08/07 05:28:05;;;;;;;0.60;0.50;;;;;;;23.58;100.00;95051.88;5074165;28;20434;-60
2022/08/07 05:30:51;;;;;;;0.73;0.60;;;;;;;23.38;100.00;95053.03;5073930;28;20473;-60
2022/08/07 05:33:20;;;;;;;0.90;0.60;;;;;;;23.42;100.00;95060.06;5073911;28;20425;-60
2022/08/07 05:35:52;;;;;;;0.70;0.43;;;;;;;23.63;100.00;95046.94;5074269;28;20429;-60
2022/08/07 05:38:24;;;;;;;0.50;0.50;;;;;;;23.89;100.00;95016.47;5074181;28;20437;-59
2022/08/07 05:41:13;;;;;;;4.60;0.67;;;;;;;24.59;100.00;95050.16;5074053;28;20434;-59
2022/08/07 05:43:49;;;;;;;0.40;0.30;;;;;;;24.86;100.00;95050.19;5073982;28;20453;-58
2022/08/07 05:46:38;;;;;;;1.43;1.43;;;;;;;24.38;100.00;95059.88;5073962;28;20447;-57
2022/08/07 05:49:11;;;;;;;1.03;0.60;;;;;;;24.36;100.00;95062.94;5074113;28;20441;-57
2022/08/07 05:51:44;;;;;;;0.70;0.40;;;;;;;24.58;100.00;95061.38;5073805;28;20507;-57
2022/08/07 05:54:16;;;;;;;2.20;1.13;;;;;;;25.26;100.00;95072.03;5074045;28;20455;-58
2022/08/07 05:57:06;;;;;;;0.50;0.40;;;;;;;25.29;100.00;95057.75;5073703;28;20431;-57
2022/08/07 05:59:38;;;;;;;1.27;1.17;;;;;;;25.07;100.00;95061.34;5073687;28;20444;-57
2022/08/07 06:02:28;;;;;;;0.90;0.73;;;;;;;25.49;100.00;95078.19;5073699;28;20429;-58
2022/08/07 06:05:02;;;;;;;2.67;1.30;;;;;;;25.56;100.00;95072.03;5073644;28;20819;-57
2022/08/07 06:07:34;;;;;;;1.17;1.17;;;;;;;26.14;99.61;95070.38;5073613;28;20554;-57
2022/08/07 06:10:23;;;;;;;0.80;0.80;;;;;;;26.69;95.63;95062.31;5073406;28;20433;-58
2022/08/07 06:12:52;;;;;;;0.50;0.40;;;;;;;27.13;92.14;95063.00;5073075;28;20530;-58
2022/08/07 06:15:26;;;;;;;0.77;0.77;;;;;;;26.80;96.65;95033.25;5073477;28;20430;-59
2022/08/07 06:18:12;;;;;;;0.77;0.70;;;;;;;26.87;89.80;95052.31;5073464;28;20491;-59
2022/08/07 06:20:41;;;;;;;1.03;1.03;;;;;;;27.14;88.18;95048.25;5073314;28;20505;-60
2022/08/07 06:23:19;;;;;;;0.60;0.50;;;;;;;27.52;89.02;95039.50;5072547;28;20432;-59
2022/08/07 06:26:13;;;;;;;0.80;0.70;;;;;;;27.36;82.05;94921.19;5072823;28;20437;-59
2022/08/07 06:28:52;;;;;;;0.63;0.40;;;;;;;28.26;75.76;95036.16;5073099;28;20500;-56
2022/08/07 06:31:21;;;;;;;1.43;0.67;;;;;;;28.48;74.58;95031.50;5073483;28;20459;-57
2022/08/07 06:34:09;;;;;;;0.93;0.50;;;;;;;28.80;71.18;95033.06;5072982;28;20957;-57
2022/08/07 06:36:40;;;;;;;0.80;0.70;;;;;;;29.26;70.13;95030.25;5073168;28;20441;-57
2022/08/07 06:39:12;;;;;;;0.53;0.47;;;;;;;29.23;66.60;94987.34;5071665;28;20461;-57
2022/08/07 06:42:04;;;;;;;0.93;0.93;;;;;;;29.64;60.90;95025.00;5070478;28;20452;-57
2022/08/07 06:44:37;;;;;;;0.80;0.80;;;;;;;29.57;61.63;95023.09;5070773;28;20464;-58
2022/08/07 06:47:07;;;;;;;0.80;0.80;;;;;;;29.65;59.66;95024.59;5070719;28;20430;-58
2022/08/07 06:49:43;;;;;;;0.70;0.70;;;;;;;30.06;59.21;95006.44;5068844;28;20463;-56
2022/08/07 06:52:22;;;;;;;0.90;0.80;;;;;;;30.20;57.50;95019.25;5069728;28;20556;-57
2022/08/07 06:55:10;;;;;;;0.97;0.80;;;;;;;30.32;52.09;95016.03;5071772;28;20517;-58
2022/08/07 06:58:02;;;;;;;0.50;0.40;;;;;;;30.63;54.12;95020.50;5072318;28;20426;-58
2022/08/07 07:00:35;;;;;;;1.37;0.70;;;;;;;30.92;51.33;95014.75;5072763;28;20480;-57
2022/08/07 07:03:06;;;;;;;0.90;0.60;;;;;;;31.03;47.69;95002.53;5072605;28;20438;-57
2022/08/07 07:05:41;;;;;;;0.63;0.63;;;;;;;31.77;47.06;94981.69;5072613;28;20438;-57
2022/08/07 07:08:30;;;;;;;0.60;0.50;;;;;;;31.59;44.83;95014.03;5072346;28;20842;-57
2022/08/07 07:11:03;;;;;;;0.50;0.40;;;;;;;32.16;43.82;95014.81;5072313;28;20411;-57
2022/08/07 07:13:55;;;;;;;0.40;0.37;;;;;;;32.31;43.50;94994.19;5071812;28;20487;-57
2022/08/07 07:16:34;;;;;;;0.40;0.30;;;;;;;32.73;43.99;95000.97;5071731;28;20858;-57
2022/08/07 07:19:21;;;;;;;0.90;0.70;;;;;;;32.51;41.09;94991.53;5071429;28;20489;-58
2022/08/07 07:22:11;;;;;;;4.10;0.60;;;;;;;32.37;41.91;95002.72;5072136;28;20891;-58
2022/08/07 07:25:01;;;;;;;0.40;0.30;;;;;;;32.22;41.82;95002.19;5071925;28;20995;-58
2022/08/07 07:27:57;;;;;;;0.53;0.40;;;;;;;32.39;40.28;95000.34;5071850;28;20460;-58
2022/08/07 07:30:38;;;;;;;1.73;1.07;;;;;;;32.27;40.31;95004.47;5072258;28;20516;-58
2022/08/07 07:33:10;;;;;;;0.80;0.80;;;;;;;31.68;40.13;95011.53;5071613;28;20543;-58
2022/08/07 07:35:44;;;;;;;0.97;0.63;;;;;;;31.24;40.04;95026.16;5071980;28;20421;-59
2022/08/07 07:38:34;;;;;;;0.73;0.73;;;;;;;31.46;39.56;95008.31;5071739;28;20431;-59
2022/08/07 07:41:06;;;;;;;0.40;0.30;;;;;;;31.58;40.17;95006.97;5071388;28;20429;-59
2022/08/07 07:43:41;;;;;;;0.70;0.50;;;;;;;31.58;41.31;95004.25;5071746;28;20477;-58
2022/08/07 07:46:31;;;;;;;0.50;0.40;;;;;;;31.47;42.02;95014.56;5071751;28;20441;-58
2022/08/07 07:49:21;;;;;;;1.03;1.03;;;;;;;31.23;41.15;95019.13;5071227;28;20976;-58
2022/08/07 07:52:12;;;;;;;0.60;0.50;;;;;;;31.56;40.49;95023.84;5071552;28;20519;-57
2022/08/07 07:54:45;;;;;;;0.40;0.30;;;;;;;31.79;41.71;95023.16;5071896;28;20502;-59
2022/08/07 07:57:21;;;;;;;0.90;0.80;;;;;;;30.94;39.48;95015.91;5071436;28;20912;-57
2022/08/07 08:00:14;;;;;;;0.80;0.80;;;;;;;30.68;41.64;95033.72;5071429;28;21027;-58
2022/08/07 08:03:03;;;;;;;1.23;0.70;;;;;;;30.28;42.32;95034.44;5071586;28;20443;-57
2022/08/07 08:05:40;;;;;;;0.60;0.60;;;;;;;30.95;40.53;95022.16;5071556;28;20470;-58
2022/08/07 08:08:23;;;;;;;1.60;1.00;;;;;;;30.87;40.27;95029.63;5071890;28;20446;-59
2022/08/07 08:11:06;;;;;;;0.50;0.50;;;;;;;30.38;42.46;95027.34;5071462;28;20499;-59
2022/08/07 08:13:39;;;;;;;0.40;0.37;;;;;;;30.30;42.72;95034.78;5071730;28;20537;-59
2022/08/07 08:16:28;;;;;;;0.50;0.43;;;;;;;30.59;44.28;95018.94;5071689;28;20433;-59
2022/08/07 08:19:00;;;;;;;3.43;0.60;;;;;;;29.95;44.06;95030.34;5071242;28;20497;-58
2022/08/07 08:27:53;;;;;;;0.40;0.30;;;;;;;30.31;45.17;95035.56;5071238;28;20973;-58
2022/08/07 08:30:33;;;;;;;0.70;0.70;;;;;;;30.06;45.81;95035.72;5071758;28;20907;-59
2022/08/07 08:33:15;;;;;;;0.50;0.37;;;;;;;30.25;45.26;95034.44;5071284;28;21062;-59
2022/08/07 08:35:47;;;;;;;0.50;0.50;;;;;;;30.85;44.19;95042.16;5071336;28;20525;-59
2022/08/07 08:38:22;;;;;;;0.80;0.63;;;;;;;30.43;45.18;94994.09;5071493;28;20800;-59
2022/08/07 08:41:05;;;;;;;0.90;0.57;;;;;;;30.88;45.35;95022.97;5071281;28;20414;-59
2022/08/07 08:43:42;;;;;;;0.50;0.50;;;;;;;30.62;42.27;95029.09;5071593;28;20433;-59
2022/08/07 08:46:37;;;;;;;0.50;0.50;;;;;;;30.32;43.48;95010.56;5074427;28;20430;-58
2022/08/07 08:49:17;;;;;;;0.90;0.90;;;;;;;30.08;44.58;95025.94;5075088;28;20530;-59
2022/08/07 08:52:06;;;;;;;0.50;0.30;;;;;;;30.58;41.36;95022.88;5074959;28;20447;-59
2022/08/07 08:54:49;;;;;;;0.50;0.30;;;;;;;30.69;43.22;95026.28;5074880;28;20481;-59
2022/08/07 08:57:26;;;;;;;0.73;0.73;;;;;;;31.08;42.26;95015.75;5075370;28;20456;-59
2022/08/07 09:00:05;;;;;;;0.87;0.80;;;;;;;31.10;40.97;95021.59;5075113;28;20427;-59
2022/08/07 09:02:45;;;;;;;6.33;0.50;;;;;;;30.84;43.17;95007.78;5075165;28;20510;-59
2022/08/07 09:05:33;;;;;;;0.80;0.77;;;;;;;31.72;42.51;95012.28;5074766;28;20450;-59
2022/08/07 09:08:19;;;;;;;6.27;0.53;;;;;;;31.21;41.10;95016.00;5074737;28;20981;-59
2022/08/07 09:11:06;;;;;;;0.77;0.77;;;;;;;31.36;43.07;95018.19;5074440;28;20439;-59
2022/08/07 09:13:43;;;;;;;0.50;0.30;;;;;;;31.64;41.37;95010.81;5074187;28;20557;-59
2022/08/07 09:16:18;;;;;;;0.60;0.40;;;;;;;31.39;40.45;95022.84;5074805;28;20475;-59
2022/08/07 09:19:12;;;;;;;0.40;0.30;;;;;;;31.57;41.37;95014.44;5074338;28;20876;-58
2022/08/07 09:22:15;;;;;;;0.43;0.43;;;;;;;32.28;37.02;95005.25;5074249;28;20445;-58
2022/08/07 09:25:09;;;;;;;0.50;0.50;;;;;;;32.37;37.68;94950.59;5074261;28;20931;-58
2022/08/07 09:27:55;;;;;;;0.73;0.73;;;;;;;32.76;36.06;94999.38;5074598;28;20810;-57
2022/08/07 09:30:46;;;;;;;1.13;0.50;;;;;;;32.24;36.37;94999.03;5074502;28;20913;-58
2022/08/07 09:33:35;;;;;;;0.53;0.53;;;;;;;33.81;35.28;94989.06;5073896;28;20989;-58
2022/08/07 09:36:28;;;;;;;0.60;0.60;;;;;;;34.23;32.96;94987.34;5073951;28;20444;-58
2022/08/07 09:39:27;;;;;;;1.10;0.90;;;;;;;33.21;32.72;95001.28;5074010;28;20916;-58
2022/08/07 09:42:31;;;;;;;1.40;1.33;;;;;;;32.30;34.80;95016.56;5074116;28;20551;-58
2022/08/07 09:45:11;;;;;;;0.73;0.70;;;;;;;31.95;38.51;95015.09;5073920;28;20796;-58
2022/08/07 09:48:17;;;;;;;0.40;0.30;;;;;;;31.82;37.86;95014.09;5073791;28;20451;-58
2022/08/07 09:51:02;;;;;;;0.50;0.50;;;;;;;31.86;39.44;95012.09;5073557;28;20436;-58
2022/08/07 09:53:43;;;;;;;0.90;0.90;;;;;;;31.84;39.27;94976.09;5073585;28;20476;-57
2022/08/07 09:57:01;;;;;;;0.80;0.80;;;;;;;31.63;40.81;95014.75;5073439;28;20421;-58
2022/08/07 09:59:53;;;;;;;0.57;0.50;;;;;;;31.68;39.08;95020.53;5061343;28;20501;-57
2022/08/07 10:03:08;;;;;;;4.33;1.37;;;;;;;31.41;39.75;95022.44;5073652;28;20424;-57
2022/08/07 10:06:27;;;;;;;0.50;0.47;;;;;;;31.63;39.93;95012.00;5073619;28;20431;-58
2022/08/07 10:09:21;;;;;;;1.23;0.73;;;;;;;31.24;40.88;95020.69;5073539;28;20444;-58
2022/08/07 10:12:20;;;;;;;0.50;0.30;;;;;;;31.60;40.99;95005.38;5073376;28;20499;-57
2022/08/07 10:15:30;;;;;;;0.70;0.70;;;;;;;31.28;43.60;94980.31;5073473;28;20465;-57
2022/08/07 10:18:28;;;;;;;0.70;0.70;;;;;;;31.33;43.20;95008.03;5073345;28;20464;-58
2022/08/07 10:21:20;;;;;;;0.80;0.80;;;;;;;31.50;42.89;95013.75;5073484;28;20428;-58
2022/08/07 10:24:30;;;;;;;0.50;0.50;;;;;;;30.87;44.33;95017.91;5073187;28;20452;-58
2022/08/07 10:27:17;;;;;;;1.57;1.47;;;;;;;30.99;45.31;95020.97;5073266;28;20484;-58
2022/08/07 10:30:08;;;;;;;1.23;1.13;;;;;;;31.25;44.12;95017.53;5073538;28;20482;-58
2022/08/07 10:33:00;;;;;;;0.40;0.40;;;;;;;31.58;43.06;95005.03;5073698;28;20412;-58
2022/08/07 10:35:35;;;;;;;1.20;0.63;;;;;;;32.31;42.29;95009.91;5073405;28;20490;-57
2022/08/07 10:38:39;;;;;;;0.70;0.70;;;;;;;32.50;40.98;95018.19;5073131;28;20455;-57
2022/08/07 10:41:25;;;;;;;2.30;0.70;;;;;;;32.02;42.37;95015.03;5073287;28;20426;-57
2022/08/07 10:44:19;;;;;;;0.60;0.40;;;;;;;32.12;40.54;95016.06;5073073;28;20517;-57
2022/08/07 10:47:15;;;;;;;0.60;0.47;;;;;;;31.83;42.15;95016.44;5073387;28;20452;-57
2022/08/07 10:49:52;;;;;;;0.43;0.43;;;;;;;31.99;41.16;95011.16;5073371;28;20507;-57
2022/08/07 10:52:32;;;;;;;0.40;0.40;;;;;;;31.85;42.47;95016.03;5073085;28;20428;-57
2022/08/07 10:55:12;;;;;;;0.60;0.60;;;;;;;31.79;41.20;95017.66;5072912;28;20565;-58
2022/08/07 10:58:18;;;;;;;0.60;0.60;;;;;;;31.80;41.59;95022.72;5072899;28;20433;-58
2022/08/07 11:01:19;;;;;;;1.00;1.00;;;;;;;31.60;44.00;95004.63;5073276;28;20424;-57
2022/08/07 11:03:59;;;;;;;1.17;1.17;;;;;;;32.03;42.08;95011.06;5072676;28;20442;-57
2022/08/07 11:07:03;;;;;;;0.97;0.97;;;;;;;32.30;41.37;95008.34;5072082;28;20443;-57
2022/08/07 11:09:48;;;;;;;0.43;0.43;;;;;;;32.27;42.48;95012.69;5072468;28;20475;-58
2022/08/07 11:12:42;;;;;;;0.60;0.40;;;;;;;31.64;41.46;94973.25;5072244;28;20440;-58
2022/08/07 11:15:22;;;;;;;1.37;0.77;;;;;;;31.82;41.86;95016.84;5071633;28;20496;-58
2022/08/07 11:18:06;;;;;;;0.60;0.60;;;;;;;31.85;42.26;95014.03;5071954;28;20466;-58
2022/08/07 11:20:47;;;;;;;0.60;0.50;;;;;;;31.76;42.16;95027.50;5072551;28;20775;-59
2022/08/07 11:23:23;;;;;;;0.77;0.77;;;;;;;31.54;43.54;95009.78;5072114;28;20520;-58
2022/08/07 11:26:13;;;;;;;0.60;0.50;;;;;;;31.66;44.10;95005.69;5072282;28;20504;-58
2022/08/07 11:28:49;;;;;;;0.83;0.83;;;;;;;32.91;41.96;95003.41;5071860;28;21029;-58
2022/08/07 11:31:34;;;;;;;0.50;0.40;;;;;;;33.20;40.63;94999.75;5071944;28;20468;-57
2022/08/07 11:34:16;;;;;;;1.30;1.13;;;;;;;32.41;40.69;94992.50;5072013;28;20530;-58
2022/08/07 11:36:58;;;;;;;0.70;0.70;;;;;;;32.29;41.96;95001.28;5071923;28;20473;-58
2022/08/07 11:39:46;;;;;;;0.87;0.87;;;;;;;31.51;41.50;94963.25;5072023;28;20509;-57
2022/08/07 11:42:39;;;;;;;0.60;0.60;;;;;;;31.68;41.71;94984.94;5072225;28;20545;-58
2022/08/07 11:45:21;;;;;;;3.90;0.97;;;;;;;31.49;43.74;94965.63;5071892;28;20941;-58
2022/08/07 11:48:16;;;;;;;0.63;0.63;;;;;;;31.98;39.79;94992.31;5071976;28;20420;-58
2022/08/07 11:51:14;;;;;;;0.83;0.50;;;;;;;32.34;39.00;94985.13;5071911;28;20479;-58
2022/08/07 11:54:31;;;;;;;0.63;0.63;;;;;;;32.05;40.49;94991.50;5071543;28;21003;-58
2022/08/07 11:57:11;;;;;;;0.70;0.60;;;;;;;31.90;40.76;94964.25;5071673;28;20443;-57
2022/08/07 12:00:02;;;;;;;2.13;1.03;;;;;;;31.61;40.25;94967.81;5071764;28;20423;-57
2022/08/07 12:03:01;;;;;;;0.77;0.77;;;;;;;31.91;40.76;94934.88;5069341;28;20545;-57
2022/08/07 12:05:40;;;;;;;0.70;0.50;;;;;;;32.37;39.61;94954.13;5071746;28;20480;-57
2022/08/07 12:08:24;;;;;;;1.53;0.97;;;;;;;32.28;38.98;94956.66;5071666;28;20428;-57
2022/08/07 12:11:03;;;;;;;0.50;0.40;;;;;;;32.49;37.09;94961.75;5071846;28;20426;-57
2022/08/07 12:13:54;;;;;;;1.33;1.13;;;;;;;32.31;37.91;94930.34;5071660;28;20525;-58
2022/08/07 12:16:28;;;;;;;0.77;0.40;;;;;;;32.52;39.01;94952.72;5071670;28;20522;-58
2022/08/07 12:19:12;;;;;;;9.27;1.13;;;;;;;32.19;41.52;94950.91;5072486;28;20556;-58
2022/08/07 12:21:57;;;;;;;0.60;0.60;;;;;;;32.12;38.64;94896.19;5075759;28;20425;-58
2022/08/07 12:28:06;;;;;;;0.40;0.40;;;;;;;33.32;37.52;94942.63;5075462;28;20435;-58
2022/08/07 12:30:42;;;;;;;0.50;0.50;;;;;;;33.04;39.15;94870.56;5075450;28;20417;-58
2022/08/07 12:33:18;;;;;;;1.33;1.23;;;;;;;33.31;36.54;94930.84;5075600;28;20976;-58
2022/08/07 12:36:00;;;;;;;0.87;0.47;;;;;;;33.71;36.30;94939.81;5075398;28;21055;-58
2022/08/07 12:38:30;;;;;;;0.57;0.50;;;;;;;33.81;37.58;94914.06;5075563;28;20439;-59
2022/08/07 12:41:12;;;;;;;0.60;0.60;;;;;;;34.43;34.87;94893.72;5075229;28;20482;-58
2022/08/07 12:43:44;;;;;;;0.83;0.83;;;;;;;33.83;34.00;94884.94;5075325;28;20523;-58
2022/08/07 12:46:43;;;;;;;0.40;0.40;;;;;;;35.23;32.47;94936.81;5075128;28;20458;-57
2022/08/07 12:49:20;;;;;;;0.40;0.40;;;;;;;34.73;30.49;94896.06;5075352;28;20501;-57